Temp: 4.0°C   Baro: 1036.7mb
  Wind: 2.0mph   Dir: W (273°)
  Rain: 0.0mm (0.0mm/hr)
  Solar: 0W/m2  Hum: 85%

Historic data

Bath Spa Weather Station Historical Data
Daily Summary for December 2, 2019 Units:  Both    English   Metric
Daily Weekly Monthly Yearly Custom
  High: Low: Average:
Temperature: 43.2 °F /  6.2 °C 28.6 °F /  -1.9 °C 34.8 °F /  1.6 °C
Dew Point: 36.1 °F /  2.3 °C 26.8 °F /  -2.9 °C 31.5 °F /  -0.3 °C
Humidity: 94% 72% 88%
Wind Speed: 5.4mph /  8.7km/h - 0.5mph /  0.8km/h
Wind Gust: 8mph /  12.9km/h - -
Wind- - West
Pressure: 30.51 in /  1033.1 hPa 30.43 in /  1030.4 hPa -
Precipitation: 0.01 in /  0.25 mm    
Historical Graphs
 
 
Tabular Data for December 2, 2019
Time Temperature Dew Point Pressure Wind Wind Speed Wind Gust Humidity Rainfall Rate (Hourly) solar
00:09 33 °F /  0.6 °C 30.1 °F /  -1.1 °C 30.43in /  1030.4hPa Calm     89% 0.00in /  0mm 0 W/m2
00:14 32.9 °F /  0.5 °C 30 °F /  -1.1 °C 30.43in /  1030.4hPa Calm     89% 0.00in /  0mm 0 W/m2
00:19 32.7 °F /  0.4 °C 29.8 °F /  -1.2 °C 30.43in /  1030.4hPa Calm     89% 0.00in /  0mm 0 W/m2
00:24 32.5 °F /  0.3 °C 29.7 °F /  -1.3 °C 30.44in /  1030.7hPa NNW 0.6mph /  1km/h 2mph /  3.2km/h 89% 0.00in /  0mm 0 W/m2
00:29 32.5 °F /  0.3 °C 29.7 °F /  -1.3 °C 30.44in /  1030.7hPa Calm   1mph /  1.6km/h 89% 0.00in /  0mm 0 W/m2
00:34 32.5 °F /  0.3 °C 29.9 °F /  -1.2 °C 30.44in /  1030.7hPa Calm   1mph /  1.6km/h 89.6% 0.00in /  0mm 0 W/m2
00:39 32.5 °F /  0.3 °C 29.9 °F /  -1.2 °C 30.44in /  1030.7hPa NNW 0.2mph /  0.3km/h 1mph /  1.6km/h 90% 0.00in /  0mm 0 W/m2
00:44 32.4 °F /  0.2 °C 29.8 °F /  -1.2 °C 30.44in /  1030.7hPa NNW 0.2mph /  0.3km/h 2mph /  3.2km/h 90% 0.00in /  0mm 0 W/m2
00:49 32.4 °F /  0.2 °C 29.8 °F /  -1.2 °C 30.44in /  1030.7hPa Calm   1mph /  1.6km/h 90% 0.00in /  0mm 0 W/m2
00:54 32.2 °F /  0.1 °C 29.7 °F /  -1.3 °C 30.44in /  1030.7hPa Calm     90% 0.00in /  0mm 0 W/m2
00:59 32.2 °F /  0.1 °C 29.7 °F /  -1.3 °C 30.44in /  1030.7hPa NNW 0.6mph /  1km/h 2mph /  3.2km/h 90% 0.00in /  0mm 0 W/m2
01:04 32.2 °F /  0.1 °C 29.7 °F /  -1.3 °C 30.44in /  1030.7hPa NNW 0.2mph /  0.3km/h 2mph /  3.2km/h 90% 0.00in /  0mm 0 W/m2
01:09 32 °F /  0 °C 29.5 °F /  -1.4 °C 30.44in /  1030.7hPa NNW 0.2mph /  0.3km/h 2mph /  3.2km/h 90% 0.00in /  0mm 0 W/m2
01:14 31.8 °F /  -0.1 °C 29.3 °F /  -1.5 °C 30.44in /  1030.7hPa Calm   1mph /  1.6km/h 90% 0.00in /  0mm 0 W/m2
01:19 31.8 °F /  -0.1 °C 29.3 °F /  -1.5 °C 30.44in /  1030.7hPa Calm     90% 0.00in /  0mm 0 W/m2
01:24 31.6 °F /  -0.2 °C 29.1 °F /  -1.6 °C 30.44in /  1030.7hPa Calm     90% 0.00in /  0mm 0 W/m2
01:29 31.6 °F /  -0.2 °C 29.1 °F /  -1.6 °C 30.44in /  1030.7hPa Calm   1mph /  1.6km/h 90% 0.00in /  0mm 0 W/m2
01:34 31.5 °F /  -0.3 °C 28.9 °F /  -1.7 °C 30.45in /  1031hPa Calm     90.4% 0.00in /  0mm 0 W/m2
01:39 31.4 °F /  -0.3 °C 29 °F /  -1.7 °C 30.44in /  1030.7hPa Calm     91% 0.00in /  0mm 0 W/m2
01:44 31.2 °F /  -0.4 °C 28.7 °F /  -1.8 °C 30.44in /  1030.7hPa NNW 0.2mph /  0.3km/h 1mph /  1.6km/h 90.2% 0.00in /  0mm 0 W/m2
01:49 31 °F /  -0.6 °C 28.6 °F /  -1.9 °C 30.44in /  1030.7hPa Calm     90.6% 0.00in /  0mm 0 W/m2
01:54 30.9 °F /  -0.6 °C 28.6 °F /  -1.9 °C 30.44in /  1030.7hPa Calm     91% 0.00in /  0mm 0 W/m2
01:59 30.9 °F /  -0.6 °C 28.6 °F /  -1.9 °C 30.44in /  1030.7hPa Calm     91% 0.00in /  0mm 0 W/m2
02:04 30.7 °F /  -0.7 °C 28.4 °F /  -2 °C 30.44in /  1030.7hPa Calm     91% 0.00in /  0mm 0 W/m2
02:09 30.7 °F /  -0.7 °C 28.4 °F /  -2 °C 30.45in /  1031hPa Calm     91% 0.00in /  0mm 0 W/m2
02:14 30.6 °F /  -0.8 °C 28.2 °F /  -2.1 °C 30.45in /  1031hPa NNW 0.2mph /  0.3km/h 1mph /  1.6km/h 91% 0.00in /  0mm 0 W/m2
02:19 30.6 °F /  -0.8 °C 28.2 °F /  -2.1 °C 30.44in /  1030.7hPa Calm     91% 0.00in /  0mm 0 W/m2
02:24 30.6 °F /  -0.8 °C 28.2 °F /  -2.1 °C 30.44in /  1030.7hPa NNW 0.2mph /  0.3km/h 1mph /  1.6km/h 91% 0.00in /  0mm 0 W/m2
02:29 30.6 °F /  -0.8 °C 28.2 °F /  -2.1 °C 30.45in /  1031hPa NNW 0.2mph /  0.3km/h 1mph /  1.6km/h 91% 0.00in /  0mm 0 W/m2
02:34 30.5 °F /  -0.8 °C 28.1 °F /  -2.2 °C 30.45in /  1031hPa Calm     91% 0.00in /  0mm 0 W/m2
02:39 30.4 °F /  -0.9 °C 28 °F /  -2.2 °C 30.45in /  1031hPa Calm     91% 0.00in /  0mm 0 W/m2
02:44 30.4 °F /  -0.9 °C 28 °F /  -2.2 °C 30.45in /  1031hPa Calm   1mph /  1.6km/h 91% 0.00in /  0mm 0 W/m2
02:49 30.4 °F /  -0.9 °C 28 °F /  -2.2 °C 30.45in /  1031hPa Calm     91% 0.00in /  0mm 0 W/m2
02:54 30.3 °F /  -0.9 °C 27.9 °F /  -2.3 °C 30.45in /  1031hPa Calm   1mph /  1.6km/h 91% 0.00in /  0mm 0 W/m2
02:59 30.2 °F /  -1 °C 27.9 °F /  -2.3 °C 30.46in /  1031.4hPa Calm   1mph /  1.6km/h 91% 0.00in /  0mm 0 W/m2
03:04 30.3 °F /  -0.9 °C 27.9 °F /  -2.3 °C 30.46in /  1031.4hPa NNW 0.4mph /  0.6km/h 2mph /  3.2km/h 91% 0.00in /  0mm 0 W/m2
03:09 30.3 °F /  -0.9 °C 28.2 °F /  -2.1 °C 30.45in /  1031hPa Calm   2mph /  3.2km/h 91.8% 0.00in /  0mm 0 W/m2
03:14 30.2 °F /  -1 °C 28.2 °F /  -2.1 °C 30.45in /  1031hPa Calm     92% 0.00in /  0mm 0 W/m2
03:19 30 °F /  -1.1 °C 28 °F /  -2.2 °C 30.45in /  1031hPa Calm     92% 0.00in /  0mm 0 W/m2
03:24 30 °F /  -1.1 °C 28 °F /  -2.2 °C 30.45in /  1031hPa Calm   1mph /  1.6km/h 92% 0.00in /  0mm 0 W/m2
03:29 30 °F /  -1.1 °C 28 °F /  -2.2 °C 30.45in /  1031hPa Calm   1mph /  1.6km/h 92% 0.00in /  0mm 0 W/m2
03:34 30 °F /  -1.1 °C 28 °F /  -2.2 °C 30.45in /  1031hPa Calm   1mph /  1.6km/h 92% 0.00in /  0mm 0 W/m2
03:38 30 °F /  -1.1 °C 28 °F /  -2.2 °C 30.45in /  1031hPa Calm     92% 0.00in /  0mm 0 W/m2
03:44 30 °F /  -1.1 °C 28 °F /  -2.2 °C 30.45in /  1031hPa Calm     92% 0.00in /  0mm 0 W/m2
03:49 30 °F /  -1.1 °C 28 °F /  -2.2 °C 30.45in /  1031hPa NNW 0.2mph /  0.3km/h 1mph /  1.6km/h 92% 0.00in /  0mm 0 W/m2
03:54 29.8 °F /  -1.2 °C 27.9 °F /  -2.3 °C 30.45in /  1031hPa Calm   1mph /  1.6km/h 92% 0.00in /  0mm 0 W/m2
03:59 29.8 °F /  -1.2 °C 27.9 °F /  -2.3 °C 30.45in /  1031hPa Calm     92% 0.00in /  0mm 0 W/m2
04:04 29.7 °F /  -1.3 °C 27.7 °F /  -2.4 °C 30.46in /  1031.4hPa Calm     92% 0.00in /  0mm 0 W/m2
04:09 29.7 °F /  -1.3 °C 27.7 °F /  -2.4 °C 30.46in /  1031.4hPa Calm     92% 0.00in /  0mm 0 W/m2
04:14 29.7 °F /  -1.3 °C 27.7 °F /  -2.4 °C 30.46in /  1031.4hPa NNW 0.2mph /  0.3km/h 1mph /  1.6km/h 92% 0.00in /  0mm 0 W/m2
04:19 29.7 °F /  -1.3 °C 27.7 °F /  -2.4 °C 30.46in /  1031.4hPa Calm   1mph /  1.6km/h 92% 0.00in /  0mm 0 W/m2
04:24 29.7 °F /  -1.3 °C 27.7 °F /  -2.4 °C 30.46in /  1031.4hPa Calm     92% 0.00in /  0mm 0 W/m2
04:29 29.7 °F /  -1.3 °C 27.7 °F /  -2.4 °C 30.46in /  1031.4hPa Calm     92% 0.00in /  0mm 0 W/m2
04:34 29.5 °F /  -1.4 °C 27.5 °F /  -2.5 °C 30.47in /  1031.7hPa Calm     92% 0.00in /  0mm 0 W/m2
04:39 29.5 °F /  -1.4 °C 27.5 °F /  -2.5 °C 30.47in /  1031.7hPa Calm   1mph /  1.6km/h 92% 0.00in /  0mm 0 W/m2
04:44 29.5 °F /  -1.4 °C 27.5 °F /  -2.5 °C 30.46in /  1031.4hPa NNW 0.2mph /  0.3km/h 1mph /  1.6km/h 92% 0.00in /  0mm 0 W/m2
04:49 29.5 °F /  -1.4 °C 27.5 °F /  -2.5 °C 30.46in /  1031.4hPa Calm   1mph /  1.6km/h 92% 0.00in /  0mm 0 W/m2
04:54 29.3 °F /  -1.5 °C 27.3 °F /  -2.6 °C 30.46in /  1031.4hPa Calm     92% 0.00in /  0mm 0 W/m2
04:59 29.3 °F /  -1.5 °C 27.3 °F /  -2.6 °C 30.46in /  1031.4hPa Calm     92% 0.00in /  0mm 0 W/m2
05:04 29.1 °F /  -1.6 °C 27.1 °F /  -2.7 °C 30.46in /  1031.4hPa Calm     92% 0.00in /  0mm 0 W/m2
05:09 29.1 °F /  -1.6 °C 27.1 °F /  -2.7 °C 30.46in /  1031.4hPa Calm     92% 0.00in /  0mm 0 W/m2
05:14 29.1 °F /  -1.6 °C 27.1 °F /  -2.7 °C 30.46in /  1031.4hPa Calm   1mph /  1.6km/h 92.2% 0.00in /  0mm 0 W/m2
05:19 29.1 °F /  -1.6 °C 27.2 °F /  -2.7 °C 30.46in /  1031.4hPa NNW 0.2mph /  0.3km/h 1mph /  1.6km/h 92.3% 0.00in /  0mm 0 W/m2
05:24 29.1 °F /  -1.6 °C 27.3 °F /  -2.6 °C 30.46in /  1031.4hPa Calm     93% 0.00in /  0mm 0 W/m2
05:29 29 °F /  -1.7 °C 27.1 °F /  -2.7 °C 30.47in /  1031.7hPa Calm   1mph /  1.6km/h 92.2% 0.00in /  0mm 0 W/m2
05:34 28.9 °F /  -1.7 °C 27 °F /  -2.8 °C 30.47in /  1031.7hPa NNW 0.2mph /  0.3km/h 2mph /  3.2km/h 92.2% 0.00in /  0mm 0 W/m2
05:39 28.9 °F /  -1.7 °C 27.1 °F /  -2.7 °C 30.47in /  1031.7hPa Calm   2mph /  3.2km/h 92.6% 0.00in /  0mm 0 W/m2
05:44 29.2 °F /  -1.6 °C 27.4 °F /  -2.6 °C 30.47in /  1031.7hPa NNW 0.4mph /  0.6km/h 2mph /  3.2km/h 93% 0.00in /  0mm 0 W/m2
05:49 29.2 °F /  -1.6 °C 27.4 °F /  -2.6 °C 30.47in /  1031.7hPa Calm     93% 0.00in /  0mm 0 W/m2
05:54 29.1 °F /  -1.6 °C 27.3 °F /  -2.6 °C 30.47in /  1031.7hPa Calm     93% 0.00in /  0mm 0 W/m2
05:59 28.9 °F /  -1.7 °C 27.1 °F /  -2.7 °C 30.47in /  1031.7hPa NNW 0.2mph /  0.3km/h 1mph /  1.6km/h 93% 0.00in /  0mm 0 W/m2
06:04 28.9 °F /  -1.7 °C 27.1 °F /  -2.7 °C 30.47in /  1031.7hPa Calm   1mph /  1.6km/h 93% 0.00in /  0mm 0 W/m2
06:09 28.8 °F /  -1.8 °C 27 °F /  -2.8 °C 30.47in /  1031.7hPa Calm     93% 0.00in /  0mm 0 W/m2
06:14 28.8 °F /  -1.8 °C 27 °F /  -2.8 °C 30.47in /  1031.7hPa Calm     93% 0.00in /  0mm 0 W/m2
06:19 28.7 °F /  -1.8 °C 26.9 °F /  -2.8 °C 30.48in /  1032.1hPa Calm     93% 0.00in /  0mm 0 W/m2
06:24 28.8 °F /  -1.8 °C 27 °F /  -2.8 °C 30.48in /  1032.1hPa Calm     93% 0.00in /  0mm 0 W/m2
06:29 28.8 °F /  -1.8 °C 27 °F /  -2.8 °C 30.48in /  1032.1hPa Calm     93% 0.00in /  0mm 0 W/m2
06:34 28.6 °F /  -1.9 °C 26.8 °F /  -2.9 °C 30.48in /  1032.1hPa Calm     93% 0.00in /  0mm 0 W/m2
06:39 28.6 °F /  -1.9 °C 26.8 °F /  -2.9 °C 30.48in /  1032.1hPa Calm     93% 0.00in /  0mm 0 W/m2
06:44 28.6 °F /  -1.9 °C 26.8 °F /  -2.9 °C 30.49in /  1032.4hPa Calm     93% 0.00in /  0mm 0 W/m2
06:49 28.6 °F /  -1.9 °C 26.8 °F /  -2.9 °C 30.49in /  1032.4hPa Calm     93% 0.00in /  0mm 0 W/m2
06:54 28.6 °F /  -1.9 °C 26.8 °F /  -2.9 °C 30.49in /  1032.4hPa Calm     93% 0.00in /  0mm 0 W/m2
06:59 28.6 °F /  -1.9 °C 26.8 °F /  -2.9 °C 30.48in /  1032.1hPa Calm     93% 0.00in /  0mm 0 W/m2
07:04 28.7 °F /  -1.8 °C 26.9 °F /  -2.8 °C 30.48in /  1032.1hPa Calm     93% 0.00in /  0mm 0 W/m2
07:09 28.6 °F /  -1.9 °C 26.8 °F /  -2.9 °C 30.48in /  1032.1hPa Calm     93% 0.00in /  0mm 0 W/m2
07:14 28.8 °F /  -1.8 °C 27 °F /  -2.8 °C 30.48in /  1032.1hPa Calm     93% 0.00in /  0mm 0 W/m2
07:19 28.9 °F /  -1.7 °C 27.1 °F /  -2.7 °C 30.48in /  1032.1hPa Calm     93% 0.00in /  0mm 0 W/m2
07:24 28.9 °F /  -1.7 °C 27.1 °F /  -2.7 °C 30.48in /  1032.1hPa Calm     93% 0.00in /  0mm 0 W/m2
07:29 29.1 °F /  -1.6 °C 27.3 °F /  -2.6 °C 30.48in /  1032.1hPa Calm     93% 0.00in /  0mm 0 W/m2
07:34 29.3 °F /  -1.5 °C 27.5 °F /  -2.5 °C 30.49in /  1032.4hPa Calm     93% 0.00in /  0mm 0 W/m2
07:39 29.5 °F /  -1.4 °C 27.7 °F /  -2.4 °C 30.49in /  1032.4hPa Calm   2mph /  3.2km/h 93% 0.00in /  0mm 0 W/m2
07:44 29.3 °F /  -1.5 °C 27.5 °F /  -2.5 °C 30.49in /  1032.4hPa Calm   1mph /  1.6km/h 93% 0.00in /  0mm 0 W/m2
07:49 29.3 °F /  -1.5 °C 27.5 °F /  -2.5 °C 30.49in /  1032.4hPa Calm     93% 0.00in /  0mm 0 W/m2
07:54 29.3 °F /  -1.5 °C 27.5 °F /  -2.5 °C 30.49in /  1032.4hPa Calm     93% 0.00in /  0mm 5 W/m2
07:59 29.3 °F /  -1.5 °C 27.5 °F /  -2.5 °C 30.49in /  1032.4hPa Calm     93% 0.00in /  0mm 7 W/m2
08:04 29.4 °F /  -1.4 °C 27.6 °F /  -2.4 °C 30.49in /  1032.4hPa Calm     93% 0.00in /  0mm 9 W/m2
08:09 29.5 °F /  -1.4 °C 27.7 °F /  -2.4 °C 30.49in /  1032.4hPa Calm     93% 0.00in /  0mm 12 W/m2
08:14 29.7 °F /  -1.3 °C 27.9 °F /  -2.3 °C 30.50in /  1032.7hPa Calm     93% 0.00in /  0mm 14 W/m2
08:19 29.4 °F /  -1.4 °C 27.6 °F /  -2.4 °C 30.50in /  1032.7hPa Calm     93% 0.00in /  0mm 18 W/m2
08:24 29.5 °F /  -1.4 °C 27.7 °F /  -2.4 °C 30.50in /  1032.7hPa Calm     93% 0.00in /  0mm 21 W/m2
08:29 29.7 °F /  -1.3 °C 27.9 °F /  -2.3 °C 30.50in /  1032.7hPa Calm     93% 0.00in /  0mm 26 W/m2
08:34 29.7 °F /  -1.3 °C 27.9 °F /  -2.3 °C 30.50in /  1032.7hPa Calm     93% 0.00in /  0mm 26 W/m2
08:39 29.9 °F /  -1.2 °C 28.2 °F /  -2.1 °C 30.50in /  1032.7hPa Calm     93.4% 0.00in /  0mm 30 W/m2
08:44 30.2 °F /  -1 °C 28.7 °F /  -1.8 °C 30.50in /  1032.7hPa Calm     94% 0.00in /  0mm 30 W/m2
08:49 30.4 °F /  -0.9 °C 28.9 °F /  -1.7 °C 30.51in /  1033.1hPa Calm     94% 0.00in /  0mm 26 W/m2
08:54 30.6 °F /  -0.8 °C 29.1 °F /  -1.6 °C 30.51in /  1033.1hPa Calm     94% 0.00in /  0mm 28 W/m2
08:58 31 °F /  -0.6 °C 29.6 °F /  -1.3 °C 30.51in /  1033.1hPa Calm     94% 0.00in /  0mm 33 W/m2
09:04 31 °F /  -0.6 °C 29.6 °F /  -1.3 °C 30.51in /  1033.1hPa Calm     94% 0.00in /  0mm 37 W/m2
09:09 30.7 °F /  -0.7 °C 29.3 °F /  -1.5 °C 30.51in /  1033.1hPa Calm     94% 0.00in /  0mm 33 W/m2
09:14 30.8 °F /  -0.7 °C 29.4 °F /  -1.4 °C 30.51in /  1033.1hPa Calm     94% 0.00in /  0mm 26 W/m2
09:19 31.1 °F /  -0.5 °C 29.7 °F /  -1.3 °C 30.51in /  1033.1hPa Calm     94% 0.00in /  0mm 26 W/m2
09:24 30.9 °F /  -0.6 °C 29.5 °F /  -1.4 °C 30.51in /  1033.1hPa Calm     94% 0.01in /  0.25mm 28 W/m2
09:29 31.6 °F /  -0.2 °C 30.1 °F /  -1.1 °C 30.51in /  1033.1hPa Calm     94% 0.01in /  0.25mm 32 W/m2
09:34 32.3 °F /  0.2 °C 30.7 °F /  -0.7 °C 30.51in /  1033.1hPa Calm     94% 0.01in /  0.25mm 47 W/m2
09:39 32.3 °F /  0.2 °C 30.7 °F /  -0.7 °C 30.51in /  1033.1hPa Calm     94% 0.01in /  0.25mm 60 W/m2
09:44 32.4 °F /  0.2 °C 30.8 °F /  -0.7 °C 30.51in /  1033.1hPa Calm     94% 0.01in /  0.25mm 58 W/m2
09:49 32.7 °F /  0.4 °C 31.1 °F /  -0.5 °C 30.51in /  1033.1hPa Calm     94% 0.01in /  0.25mm 49 W/m2
09:54 33.3 °F /  0.7 °C 31.6 °F /  -0.2 °C 30.50in /  1032.7hPa Calm     93.4% 0.01in /  0.25mm 49 W/m2
09:59 34 °F /  1.1 °C 32.2 °F /  0.1 °C 30.51in /  1033.1hPa NW 0.2mph /  0.3km/h 1mph /  1.6km/h 93.4% 0.01in /  0.25mm 62 W/m2
10:04 33.9 °F /  1.1 °C 32.1 °F /  0.1 °C 30.51in /  1033.1hPa Calm   1mph /  1.6km/h 93% 0.01in /  0.25mm 84 W/m2
10:09 34.7 °F /  1.5 °C 32.8 °F /  0.4 °C 30.51in /  1033.1hPa Calm   1mph /  1.6km/h 93% 0.01in /  0.25mm 114 W/m2
10:14 35.2 °F /  1.8 °C 33.2 °F /  0.7 °C 30.51in /  1033.1hPa NW 0.4mph /  0.6km/h 2mph /  3.2km/h 92.6% 0.01in /  0.25mm 127 W/m2
10:19 35.4 °F /  1.9 °C 33.3 °F /  0.7 °C 30.51in /  1033.1hPa NW 0.2mph /  0.3km/h 2mph /  3.2km/h 92% 0.01in /  0.25mm 132 W/m2
10:24 35.9 °F /  2.2 °C 33.7 °F /  0.9 °C 30.51in /  1033.1hPa Calm   1mph /  1.6km/h 91.4% 0.00in /  0mm 163 W/m2
10:29 36.3 °F /  2.4 °C 33.9 °F /  1.1 °C 30.51in /  1033.1hPa Calm     90.8% 0.00in /  0mm 195 W/m2
10:33 36.4 °F /  2.4 °C 33.7 °F /  0.9 °C 30.51in /  1033.1hPa Calm     90% 0.00in /  0mm 202 W/m2
10:39 36.1 °F /  2.3 °C 33.2 °F /  0.7 °C 30.51in /  1033.1hPa Calm     89% 0.00in /  0mm 151 W/m2
10:44 36.1 °F /  2.3 °C 32.9 °F /  0.5 °C 30.51in /  1033.1hPa Calm     88.2% 0.00in /  0mm 211 W/m2
10:49 36.1 °F /  2.3 °C 32.9 °F /  0.5 °C 30.51in /  1033.1hPa Calm     88% 0.00in /  0mm 167 W/m2
10:54 36.2 °F /  2.3 °C 33 °F /  0.6 °C 30.51in /  1033.1hPa West 1mph /  1.6km/h 4mph /  6.4km/h 88% 0.00in /  0mm 181 W/m2
10:59 36.6 °F /  2.6 °C 33.4 °F /  0.8 °C 30.51in /  1033.1hPa West 1.2mph /  1.9km/h 4mph /  6.4km/h 88% 0.00in /  0mm 193 W/m2
11:04 37.3 °F /  2.9 °C 34.1 °F /  1.2 °C 30.51in /  1033.1hPa West 1.6mph /  2.6km/h 5mph /  8km/h 88% 0.00in /  0mm 192 W/m2
11:09 37.5 °F /  3.1 °C 34 °F /  1.1 °C 30.51in /  1033.1hPa West 2.7mph /  4.3km/h 5mph /  8km/h 87.3% 0.00in /  0mm 181 W/m2
11:14 37.6 °F /  3.1 °C 33.8 °F /  1 °C 30.51in /  1033.1hPa West 2mph /  3.2km/h 6mph /  9.7km/h 86.4% 0.00in /  0mm 158 W/m2
11:19 38.1 °F /  3.4 °C 34.2 °F /  1.2 °C 30.51in /  1033.1hPa West 0.6mph /  1km/h 3mph /  4.8km/h 85.6% 0.00in /  0mm 181 W/m2
11:24 39.2 °F /  4 °C 34.9 °F /  1.6 °C 30.51in /  1033.1hPa West 1.4mph /  2.3km/h 4mph /  6.4km/h 84.4% 0.00in /  0mm 185 W/m2
11:29 39.1 °F /  3.9 °C 34.2 °F /  1.2 °C 30.51in /  1033.1hPa West 2.7mph /  4.3km/h 5mph /  8km/h 82.4% 0.00in /  0mm 186 W/m2
11:34 39.1 °F /  3.9 °C 33.8 °F /  1 °C 30.51in /  1033.1hPa WSW 1.6mph /  2.6km/h 4mph /  6.4km/h 81.2% 0.00in /  0mm 188 W/m2
11:39 39.6 °F /  4.2 °C 34.2 °F /  1.2 °C 30.51in /  1033.1hPa WSW 2mph /  3.2km/h 4mph /  6.4km/h 81% 0.00in /  0mm 188 W/m2
11:44 39.8 °F /  4.3 °C 34.3 °F /  1.3 °C 30.51in /  1033.1hPa WSW 3.2mph /  5.1km/h 6mph /  9.7km/h 80.2% 0.00in /  0mm 193 W/m2
11:49 39.8 °F /  4.3 °C 34.1 °F /  1.2 °C 30.50in /  1032.7hPa WSW 1.9mph /  3.1km/h 4mph /  6.4km/h 79.5% 0.00in /  0mm 193 W/m2
11:54 40.2 °F /  4.6 °C 34.5 °F /  1.4 °C 30.50in /  1032.7hPa WSW 2.4mph /  3.9km/h 5mph /  8km/h 80% 0.00in /  0mm 195 W/m2
11:59 40.2 °F /  4.6 °C 34.3 °F /  1.3 °C 30.50in /  1032.7hPa WSW 4.5mph /  7.2km/h 6mph /  9.7km/h 79.2% 0.00in /  0mm 197 W/m2
12:04 40.3 °F /  4.6 °C 34.3 °F /  1.3 °C 30.50in /  1032.7hPa WSW 2mph /  3.2km/h 5mph /  8km/h 79% 0.00in /  0mm 199 W/m2
12:09 41.2 °F /  5.1 °C 35.2 °F /  1.8 °C 30.50in /  1032.7hPa WSW 1.4mph /  2.3km/h 5mph /  8km/h 78.8% 0.00in /  0mm 204 W/m2
12:14 41.4 °F /  5.2 °C 34.7 °F /  1.5 °C 30.50in /  1032.7hPa WSW 0.9mph /  1.4km/h 5mph /  8km/h 77% 0.00in /  0mm 207 W/m2
12:19 41.7 °F /  5.4 °C 34.8 °F /  1.6 °C 30.50in /  1032.7hPa WSW 2.9mph /  4.7km/h 4mph /  6.4km/h 76.3% 0.00in /  0mm 218 W/m2
12:24 42.1 °F /  5.6 °C 35.1 °F /  1.7 °C 30.50in /  1032.7hPa WSW 3.3mph /  5.3km/h 6mph /  9.7km/h 76% 0.00in /  0mm 206 W/m2
12:29 42.1 °F /  5.6 °C 34.8 °F /  1.6 °C 30.50in /  1032.7hPa WSW 2.5mph /  4km/h 5mph /  8km/h 75.3% 0.00in /  0mm 199 W/m2
12:34 42.3 °F /  5.7 °C 34.4 °F /  1.3 °C 30.50in /  1032.7hPa WNW 5.4mph /  8.7km/h 8mph /  12.9km/h 73.8% 0.00in /  0mm 227 W/m2
12:39 42.3 °F /  5.7 °C 33.8 °F /  1 °C 30.50in /  1032.7hPa West 2.9mph /  4.7km/h 6mph /  9.7km/h 72% 0.00in /  0mm 272 W/m2
12:44 42.6 °F /  5.9 °C 34.5 °F /  1.4 °C 30.50in /  1032.7hPa West 2.3mph /  3.7km/h 6mph /  9.7km/h 73% 0.00in /  0mm 279 W/m2
12:49 42.6 °F /  5.9 °C 34.5 °F /  1.4 °C 30.49in /  1032.4hPa West 3.6mph /  5.8km/h 6mph /  9.7km/h 73% 0.00in /  0mm 163 W/m2
12:54 42.3 °F /  5.7 °C 34.2 °F /  1.2 °C 30.49in /  1032.4hPa WSW 4.3mph /  6.9km/h 6mph /  9.7km/h 72.8% 0.00in /  0mm 146 W/m2
12:59 42.1 °F /  5.6 °C 34 °F /  1.1 °C 30.49in /  1032.4hPa WSW 3.2mph /  5.1km/h 6mph /  9.7km/h 73% 0.00in /  0mm 134 W/m2
13:04 42.1 °F /  5.6 °C 34 °F /  1.1 °C 30.49in /  1032.4hPa West 2.9mph /  4.7km/h 6mph /  9.7km/h 73% 0.00in /  0mm 118 W/m2
13:09 42.1 °F /  5.6 °C 34.1 °F /  1.2 °C 30.49in /  1032.4hPa West 2mph /  3.2km/h 6mph /  9.7km/h 73.4% 0.00in /  0mm 113 W/m2
13:13 42.1 °F /  5.6 °C 34.3 °F /  1.3 °C 30.49in /  1032.4hPa West 2.2mph /  3.5km/h 5mph /  8km/h 74% 0.00in /  0mm 113 W/m2
13:19 42.1 °F /  5.6 °C 34.3 °F /  1.3 °C 30.49in /  1032.4hPa West 2.6mph /  4.2km/h 6mph /  9.7km/h 74% 0.00in /  0mm 102 W/m2
13:24 42.2 °F /  5.7 °C 34.4 °F /  1.3 °C 30.49in /  1032.4hPa West 2.1mph /  3.4km/h 5mph /  8km/h 74% 0.00in /  0mm 98 W/m2
13:29 42.3 °F /  5.7 °C 34.5 °F /  1.4 °C 30.49in /  1032.4hPa West 2.1mph /  3.4km/h 4mph /  6.4km/h 74% 0.00in /  0mm 97 W/m2
13:34 42.3 °F /  5.7 °C 34.5 °F /  1.4 °C 30.49in /  1032.4hPa West 1.4mph /  2.3km/h 5mph /  8km/h 73.8% 0.00in /  0mm 93 W/m2
13:39 42.4 °F /  5.8 °C 34.7 °F /  1.5 °C 30.49in /  1032.4hPa West 0.6mph /  1km/h 3mph /  4.8km/h 74% 0.00in /  0mm 90 W/m2
13:44 42.6 °F /  5.9 °C 34.9 °F /  1.6 °C 30.49in /  1032.4hPa West 2.1mph /  3.4km/h 4mph /  6.4km/h 74% 0.00in /  0mm 88 W/m2
13:49 42.5 °F /  5.8 °C 34.6 °F /  1.4 °C 30.48in /  1032.1hPa West 1.8mph /  2.9km/h 5mph /  8km/h 73.5% 0.00in /  0mm 84 W/m2
13:54 42.4 °F /  5.8 °C 34.6 °F /  1.4 °C 30.48in /  1032.1hPa West 2.2mph /  3.5km/h 4mph /  6.4km/h 73.8% 0.00in /  0mm 83 W/m2
13:59 42.4 °F /  5.8 °C 34.7 °F /  1.5 °C 30.48in /  1032.1hPa West 3.6mph /  5.8km/h 5mph /  8km/h 74% 0.00in /  0mm 83 W/m2
14:04 42.4 °F /  5.8 °C 34.7 °F /  1.5 °C 30.48in /  1032.1hPa West 2.1mph /  3.4km/h 4mph /  6.4km/h 74% 0.00in /  0mm 81 W/m2
14:09 42.5 °F /  5.8 °C 34.9 °F /  1.6 °C 30.48in /  1032.1hPa West 1.3mph /  2.1km/h 4mph /  6.4km/h 74.4% 0.00in /  0mm 93 W/m2
14:14 42.5 °F /  5.8 °C 35.1 °F /  1.7 °C 30.48in /  1032.1hPa West 3mph /  4.8km/h 5mph /  8km/h 75% 0.00in /  0mm 90 W/m2
14:19 42.5 °F /  5.8 °C 35.2 °F /  1.8 °C 30.48in /  1032.1hPa West 2.7mph /  4.3km/h 5mph /  8km/h 75% 0.00in /  0mm 84 W/m2
14:24 42.4 °F /  5.8 °C 35.1 °F /  1.7 °C 30.47in /  1031.7hPa West 2mph /  3.2km/h 5mph /  8km/h 75% 0.00in /  0mm 84 W/m2
14:29 42.6 °F /  5.9 °C 35.3 °F /  1.8 °C 30.47in /  1031.7hPa West 1.6mph /  2.6km/h 4mph /  6.4km/h 75.2% 0.00in /  0mm 72 W/m2
14:34 42.5 °F /  5.8 °C 35.4 °F /  1.9 °C 30.47in /  1031.7hPa West 3.8mph /  6.1km/h 7mph /  11.3km/h 76% 0.00in /  0mm 83 W/m2
14:39 42.5 °F /  5.8 °C 35.4 °F /  1.9 °C 30.48in /  1032.1hPa West 2.2mph /  3.5km/h 5mph /  8km/h 76% 0.00in /  0mm 95 W/m2
14:44 42.6 °F /  5.9 °C 35.6 °F /  2 °C 30.48in /  1032.1hPa West 3mph /  4.8km/h 6mph /  9.7km/h 76% 0.00in /  0mm 77 W/m2
14:49 42.8 °F /  6 °C 35.8 °F /  2.1 °C 30.48in /  1032.1hPa West 2.6mph /  4.2km/h 6mph /  9.7km/h 76% 0.00in /  0mm 62 W/m2
14:54 43 °F /  6.1 °C 36 °F /  2.2 °C 30.48in /  1032.1hPa West 3mph /  4.8km/h 5mph /  8km/h 76% 0.00in /  0mm 53 W/m2
14:59 43.2 °F /  6.2 °C 36.1 °F /  2.3 °C 30.48in /  1032.1hPa West 3.1mph /  5km/h 5mph /  8km/h 76% 0.00in /  0mm 46 W/m2
15:04 42.8 °F /  6 °C 35.8 °F /  2.1 °C 30.48in /  1032.1hPa West 2.1mph /  3.4km/h 5mph /  8km/h 76% 0.00in /  0mm 39 W/m2
15:09 42.8 °F /  6 °C 35.9 °F /  2.2 °C 30.48in /  1032.1hPa West 1.7mph /  2.7km/h 5mph /  8km/h 76.2% 0.00in /  0mm 33 W/m2
15:14 42.8 °F /  6 °C 36 °F /  2.2 °C 30.48in /  1032.1hPa West 3.3mph /  5.3km/h 6mph /  9.7km/h 76.8% 0.00in /  0mm 32 W/m2
15:19 42.6 °F /  5.9 °C 35.9 °F /  2.2 °C 30.48in /  1032.1hPa West 2.8mph /  4.5km/h 5mph /  8km/h 76.8% 0.00in /  0mm 28 W/m2
15:24 42.4 °F /  5.8 °C 35.8 °F /  2.1 °C 30.48in /  1032.1hPa West 3.2mph /  5.1km/h 5mph /  8km/h 77% 0.00in /  0mm 26 W/m2
15:29 42.3 °F /  5.7 °C 35.8 °F /  2.1 °C 30.48in /  1032.1hPa West 3.2mph /  5.1km/h 5mph /  8km/h 77.5% 0.00in /  0mm 25 W/m2
15:34 42.3 °F /  5.7 °C 36 °F /  2.2 °C 30.48in /  1032.1hPa West 3.6mph /  5.8km/h 5mph /  8km/h 78% 0.00in /  0mm 21 W/m2
15:39 42.1 °F /  5.6 °C 35.8 °F /  2.1 °C 30.48in /  1032.1hPa West 2.3mph /  3.7km/h 5mph /  8km/h 78% 0.00in /  0mm 19 W/m2
15:44 41.9 °F /  5.5 °C 35.6 °F /  2 °C 30.48in /  1032.1hPa West 3.3mph /  5.3km/h 5mph /  8km/h 78% 0.00in /  0mm 16 W/m2
15:49 41.7 °F /  5.4 °C 35.6 °F /  2 °C 30.48in /  1032.1hPa West 1.2mph /  1.9km/h 4mph /  6.4km/h 78.5% 0.00in /  0mm 14 W/m2
15:54 41.5 °F /  5.3 °C 35.5 °F /  1.9 °C 30.48in /  1032.1hPa West 0.8mph /  1.3km/h 3mph /  4.8km/h 79% 0.00in /  0mm 12 W/m2
15:59 41.4 °F /  5.2 °C 35.4 °F /  1.9 °C 30.48in /  1032.1hPa Calm   2mph /  3.2km/h 79% 0.00in /  0mm 9 W/m2
16:04 41.2 °F /  5.1 °C 35.4 °F /  1.9 °C 30.48in /  1032.1hPa Calm   3mph /  4.8km/h 79.8% 0.00in /  0mm 7 W/m2
16:09 41.1 °F /  5.1 °C 35.3 °F /  1.8 °C 30.48in /  1032.1hPa West 0.2mph /  0.3km/h 1mph /  1.6km/h 80% 0.00in /  0mm 5 W/m2
16:14 40.7 °F /  4.8 °C 35 °F /  1.7 °C 30.48in /  1032.1hPa Calm   1mph /  1.6km/h 80% 0.00in /  0mm 0 W/m2
16:19 40.4 °F /  4.7 °C 34.9 °F /  1.6 °C 30.48in /  1032.1hPa Calm     80.8% 0.00in /  0mm 0 W/m2
16:24 40.3 °F /  4.6 °C 34.9 °F /  1.6 °C 30.48in /  1032.1hPa Calm     81% 0.00in /  0mm 0 W/m2
16:29 40.2 °F /  4.6 °C 34.8 °F /  1.6 °C 30.48in /  1032.1hPa Calm     81% 0.00in /  0mm 0 W/m2
16:34 39.8 °F /  4.3 °C 34.6 °F /  1.4 °C 30.48in /  1032.1hPa Calm     81.6% 0.00in /  0mm 0 W/m2
16:39 39.5 °F /  4.2 °C 34.4 °F /  1.3 °C 30.48in /  1032.1hPa West 0.3mph /  0.5km/h 1mph /  1.6km/h 82% 0.00in /  0mm 0 W/m2
16:44 38.8 °F /  3.8 °C 33.8 °F /  1 °C 30.48in /  1032.1hPa Calm   1mph /  1.6km/h 82.2% 0.00in /  0mm 0 W/m2
16:49 38.2 °F /  3.4 °C 33.5 °F /  0.8 °C 30.48in /  1032.1hPa Calm   1mph /  1.6km/h 83% 0.00in /  0mm 0 W/m2
16:54 38 °F /  3.3 °C 33.5 °F /  0.8 °C 30.48in /  1032.1hPa Calm     83.6% 0.00in /  0mm 0 W/m2
16:59 37.9 °F /  3.3 °C 33.6 °F /  0.9 °C 30.48in /  1032.1hPa Calm     84.2% 0.00in /  0mm 0 W/m2
17:04 37.9 °F /  3.3 °C 33.7 °F /  0.9 °C 30.48in /  1032.1hPa Calm     84.8% 0.00in /  0mm 0 W/m2
17:09 37.7 °F /  3.2 °C 33.5 °F /  0.8 °C 30.48in /  1032.1hPa Calm     85% 0.00in /  0mm 0 W/m2
17:14 37.3 °F /  2.9 °C 33.2 °F /  0.7 °C 30.48in /  1032.1hPa Calm     85% 0.00in /  0mm 0 W/m2
17:19 37.1 °F /  2.8 °C 33.2 °F /  0.7 °C 30.48in /  1032.1hPa Calm     85.6% 0.00in /  0mm 0 W/m2
17:24 36.9 °F /  2.7 °C 33.2 °F /  0.7 °C 30.48in /  1032.1hPa Calm     86% 0.00in /  0mm 0 W/m2
17:29 36.9 °F /  2.7 °C 33.2 °F /  0.7 °C 30.48in /  1032.1hPa Calm     86.2% 0.00in /  0mm 0 W/m2
17:33 36.9 °F /  2.7 °C 33.3 °F /  0.7 °C 30.48in /  1032.1hPa Calm     86.8% 0.00in /  0mm 0 W/m2
17:39 36.7 °F /  2.6 °C 33.2 °F /  0.7 °C 30.48in /  1032.1hPa Calm     87% 0.00in /  0mm 0 W/m2
17:44 36.1 °F /  2.3 °C 32.7 °F /  0.4 °C 30.48in /  1032.1hPa Calm     87% 0.00in /  0mm 0 W/m2
17:49 36 °F /  2.2 °C 32.5 °F /  0.3 °C 30.48in /  1032.1hPa Calm     87.2% 0.00in /  0mm 0 W/m2
17:54 36.1 °F /  2.3 °C 32.9 °F /  0.5 °C 30.48in /  1032.1hPa Calm     88% 0.00in /  0mm 0 W/m2
17:59 36.1 °F /  2.3 °C 32.8 °F /  0.4 °C 30.48in /  1032.1hPa Calm     88% 0.00in /  0mm 0 W/m2
18:04 36.1 °F /  2.3 °C 32.8 °F /  0.4 °C 30.48in /  1032.1hPa Calm     88% 0.00in /  0mm 0 W/m2
18:09 36.1 °F /  2.3 °C 32.9 °F /  0.5 °C 30.48in /  1032.1hPa Calm     88% 0.00in /  0mm 0 W/m2
18:14 36.1 °F /  2.3 °C 32.9 °F /  0.5 °C 30.48in /  1032.1hPa Calm     88% 0.00in /  0mm 0 W/m2
18:19 36 °F /  2.2 °C 32.8 °F /  0.4 °C 30.48in /  1032.1hPa Calm     88% 0.00in /  0mm 0 W/m2
18:24 36 °F /  2.2 °C 33.1 °F /  0.6 °C 30.48in /  1032.1hPa Calm     89% 0.00in /  0mm 0 W/m2
18:29 36 °F /  2.2 °C 33.1 °F /  0.6 °C 30.48in /  1032.1hPa Calm     89% 0.00in /  0mm 0 W/m2
18:34 36 °F /  2.2 °C 33.1 °F /  0.6 °C 30.48in /  1032.1hPa Calm     89% 0.00in /  0mm 0 W/m2
18:39 35.9 °F /  2.2 °C 33 °F /  0.6 °C 30.48in /  1032.1hPa Calm     89% 0.00in /  0mm 0 W/m2
18:44 35.5 °F /  1.9 °C 32.6 °F /  0.3 °C 30.48in /  1032.1hPa Calm     89% 0.00in /  0mm 0 W/m2
18:49 35.4 °F /  1.9 °C 32.5 °F /  0.3 °C 30.48in /  1032.1hPa Calm     89% 0.00in /  0mm 0 W/m2
18:54 35.3 °F /  1.8 °C 32.4 °F /  0.2 °C 30.48in /  1032.1hPa Calm     89% 0.00in /  0mm 0 W/m2
18:59 35.4 °F /  1.9 °C 32.5 °F /  0.3 °C 30.48in /  1032.1hPa Calm     89% 0.00in /  0mm 0 W/m2
19:04 35.3 °F /  1.8 °C 32.5 °F /  0.3 °C 30.48in /  1032.1hPa Calm     89% 0.00in /  0mm 0 W/m2
19:09 35.2 °F /  1.8 °C 32.4 °F /  0.2 °C 30.48in /  1032.1hPa Calm     89% 0.00in /  0mm 0 W/m2
19:14 35.2 °F /  1.8 °C 32.5 °F /  0.3 °C 30.48in /  1032.1hPa Calm     89.6% 0.00in /  0mm 0 W/m2
19:19 35.2 °F /  1.8 °C 32.5 °F /  0.3 °C 30.48in /  1032.1hPa Calm     90% 0.00in /  0mm 0 W/m2
19:24 35.2 °F /  1.8 °C 32.5 °F /  0.3 °C 30.48in /  1032.1hPa Calm     90% 0.00in /  0mm 0 W/m2
19:29 35.2 °F /  1.8 °C 32.5 °F /  0.3 °C 30.48in /  1032.1hPa Calm     90% 0.00in /  0mm 0 W/m2
19:34 35.2 °F /  1.8 °C 32.5 °F /  0.3 °C 30.48in /  1032.1hPa Calm     90% 0.00in /  0mm 0 W/m2
19:39 35.1 °F /  1.7 °C 32.4 °F /  0.2 °C 30.48in /  1032.1hPa Calm     90% 0.00in /  0mm 0 W/m2
19:44 35.1 °F /  1.7 °C 32.4 °F /  0.2 °C 30.48in /  1032.1hPa Calm     90% 0.00in /  0mm 0 W/m2
19:49 35.1 °F /  1.7 °C 32.4 °F /  0.2 °C 30.48in /  1032.1hPa Calm     90% 0.00in /  0mm 0 W/m2
19:54 34.9 °F /  1.6 °C 32.2 °F /  0.1 °C 30.48in /  1032.1hPa Calm     90% 0.00in /  0mm 0 W/m2
19:59 34.9 °F /  1.6 °C 32.2 °F /  0.1 °C 30.48in /  1032.1hPa Calm     90% 0.00in /  0mm 0 W/m2
20:03 35.1 °F /  1.7 °C 32.3 °F /  0.2 °C 30.48in /  1032.1hPa Calm     90% 0.00in /  0mm 0 W/m2
20:09 35.1 °F /  1.7 °C 32.4 °F /  0.2 °C 30.48in /  1032.1hPa Calm     90% 0.00in /  0mm 0 W/m2
20:14 34.9 °F /  1.6 °C 32.3 °F /  0.2 °C 30.47in /  1031.7hPa Calm     90.2% 0.00in /  0mm 0 W/m2
20:19 34.9 °F /  1.6 °C 32.4 °F /  0.2 °C 30.48in /  1032.1hPa Calm     90.8% 0.00in /  0mm 0 W/m2
20:24 34.9 °F /  1.6 °C 32.5 °F /  0.3 °C 30.47in /  1031.7hPa Calm     91% 0.00in /  0mm 0 W/m2
20:29 34.8 °F /  1.6 °C 32.4 °F /  0.2 °C 30.47in /  1031.7hPa Calm     91% 0.00in /  0mm 0 W/m2
20:34 34.9 °F /  1.6 °C 32.5 °F /  0.3 °C 30.47in /  1031.7hPa Calm     91% 0.00in /  0mm 0 W/m2
20:39 34.8 °F /  1.6 °C 32.5 °F /  0.3 °C 30.47in /  1031.7hPa Calm     91% 0.00in /  0mm 0 W/m2
20:44 34.7 °F /  1.5 °C 32.4 °F /  0.2 °C 30.48in /  1032.1hPa Calm     91% 0.00in /  0mm 0 W/m2
20:49 34.7 °F /  1.5 °C 32.4 °F /  0.2 °C 30.47in /  1031.7hPa Calm     91% 0.00in /  0mm 0 W/m2
20:54 34.5 °F /  1.4 °C 32.2 °F /  0.1 °C 30.47in /  1031.7hPa Calm     91% 0.00in /  0mm 0 W/m2
20:58 34.6 °F /  1.4 °C 32.3 °F /  0.2 °C 30.48in /  1032.1hPa Calm     91% 0.00in /  0mm 0 W/m2
21:04 34.7 °F /  1.5 °C 32.4 °F /  0.2 °C 30.48in /  1032.1hPa Calm     91% 0.00in /  0mm 0 W/m2
21:09 34.7 °F /  1.5 °C 32.4 °F /  0.2 °C 30.48in /  1032.1hPa Calm     91% 0.00in /  0mm 0 W/m2
21:14 34.5 °F /  1.4 °C 32.2 °F /  0.1 °C 30.48in /  1032.1hPa Calm     91% 0.00in /  0mm 0 W/m2
21:19 34.5 °F /  1.4 °C 32.2 °F /  0.1 °C 30.48in /  1032.1hPa Calm     91% 0.00in /  0mm 0 W/m2
21:24 34.7 °F /  1.5 °C 32.4 °F /  0.2 °C 30.48in /  1032.1hPa Calm     91% 0.00in /  0mm 0 W/m2
21:29 34.9 °F /  1.6 °C 32.5 °F /  0.3 °C 30.48in /  1032.1hPa Calm     91% 0.00in /  0mm 0 W/m2
21:34 34.9 °F /  1.6 °C 32.5 °F /  0.3 °C 30.48in /  1032.1hPa Calm     91% 0.00in /  0mm 0 W/m2
21:38 34.9 °F /  1.6 °C 32.5 °F /  0.3 °C 30.48in /  1032.1hPa Calm     91% 0.00in /  0mm 0 W/m2
21:44 34.9 °F /  1.6 °C 32.5 °F /  0.3 °C 30.47in /  1031.7hPa Calm     91% 0.00in /  0mm 0 W/m2
21:49 34.9 °F /  1.6 °C 32.5 °F /  0.3 °C 30.47in /  1031.7hPa Calm     91.2% 0.00in /  0mm 0 W/m2
21:54 34.9 °F /  1.6 °C 32.7 °F /  0.4 °C 30.47in /  1031.7hPa Calm     92% 0.00in /  0mm 0 W/m2
21:59 34.8 °F /  1.6 °C 32.6 °F /  0.3 °C 30.47in /  1031.7hPa Calm     92% 0.00in /  0mm 0 W/m2
22:04 34.9 °F /  1.6 °C 32.7 °F /  0.4 °C 30.47in /  1031.7hPa Calm     92% 0.00in /  0mm 0 W/m2
22:09 34.9 °F /  1.6 °C 32.7 °F /  0.4 °C 30.47in /  1031.7hPa Calm     92% 0.00in /  0mm 0 W/m2
22:14 34.9 °F /  1.6 °C 32.7 °F /  0.4 °C 30.47in /  1031.7hPa Calm     92% 0.00in /  0mm 0 W/m2
22:19 35.1 °F /  1.7 °C 32.9 °F /  0.5 °C 30.47in /  1031.7hPa Calm     92% 0.00in /  0mm 0 W/m2
22:24 35.2 °F /  1.8 °C 33 °F /  0.6 °C 30.47in /  1031.7hPa Calm     92% 0.00in /  0mm 0 W/m2
22:29 35.2 °F /  1.8 °C 33.1 °F /  0.6 °C 30.47in /  1031.7hPa Calm     92% 0.00in /  0mm 0 W/m2
22:34 35.3 °F /  1.8 °C 33.2 °F /  0.7 °C 30.47in /  1031.7hPa Calm     92% 0.00in /  0mm 0 W/m2
22:39 35.4 °F /  1.9 °C 33.3 °F /  0.7 °C 30.47in /  1031.7hPa Calm     92% 0.00in /  0mm 0 W/m2
22:44 35.4 °F /  1.9 °C 33.3 °F /  0.7 °C 30.47in /  1031.7hPa Calm     92% 0.00in /  0mm 0 W/m2
22:49 35.6 °F /  2 °C 33.5 °F /  0.8 °C 30.47in /  1031.7hPa Calm     92% 0.00in /  0mm 0 W/m2
22:54 35.8 °F /  2.1 °C 33.6 °F /  0.9 °C 30.47in /  1031.7hPa Calm     92% 0.00in /  0mm 0 W/m2
22:59 35.8 °F /  2.1 °C 33.6 °F /  0.9 °C 30.47in /  1031.7hPa Calm     92% 0.00in /  0mm 0 W/m2
23:04 35.9 °F /  2.2 °C 33.7 °F /  0.9 °C 30.47in /  1031.7hPa Calm     92% 0.00in /  0mm 0 W/m2
23:09 36 °F /  2.2 °C 33.8 °F /  1 °C 30.47in /  1031.7hPa Calm     92% 0.00in /  0mm 0 W/m2
23:14 36.1 °F /  2.3 °C 34 °F /  1.1 °C 30.47in /  1031.7hPa Calm     92% 0.00in /  0mm 0 W/m2
23:19 36.2 °F /  2.3 °C 34.1 °F /  1.2 °C 30.47in /  1031.7hPa Calm     92% 0.00in /  0mm 0 W/m2
23:24 36.3 °F /  2.4 °C 34.2 °F /  1.2 °C 30.47in /  1031.7hPa Calm     92% 0.00in /  0mm 0 W/m2
23:29 36.3 °F /  2.4 °C 34.2 °F /  1.2 °C 30.47in /  1031.7hPa Calm     92% 0.00in /  0mm 0 W/m2
23:34 36.5 °F /  2.5 °C 34.3 °F /  1.3 °C 30.47in /  1031.7hPa Calm     92% 0.00in /  0mm 0 W/m2
23:39 36.7 °F /  2.6 °C 34.5 °F /  1.4 °C 30.47in /  1031.7hPa Calm     92% 0.00in /  0mm 0 W/m2
23:44 36.7 °F /  2.6 °C 34.5 °F /  1.4 °C 30.47in /  1031.7hPa Calm     92% 0.00in /  0mm 0 W/m2
23:49 36.6 °F /  2.6 °C 34.4 °F /  1.3 °C 30.47in /  1031.7hPa Calm     92% 0.00in /  0mm 0 W/m2
23:54 36.5 °F /  2.5 °C 34.3 °F /  1.3 °C 30.47in /  1031.7hPa Calm     92% 0.00in /  0mm 0 W/m2
23:59 36.6 °F /  2.6 °C 34.4 °F /  1.3 °C 30.47in /  1031.7hPa Calm     92% 0.00in /  0mm 0 W/m2
Bath Spa Weather
Compliments of Weather Underground - 2 mb